Time,TemperatureF,DewpointF,PressureIn,WindDirection,WindDirectionDegrees,WindSpeedMPH,WindSpeedGustMPH,Humidity,HourlyPrecipIn,Conditions,Clouds,dailyrainin,SoftwareType,DateUTC
2013-07-02 00:02:00,48.0,41.0,30.17,NNW,346,0.0,1.0,76,0.00,,,0.00,,2013-07-02 04:02:00,
2013-07-02 00:11:00,48.0,40.0,30.17,NNW,346,0.0,1.0,73,0.00,,,0.00,,2013-07-02 04:11:00,
2013-07-02 00:22:00,48.0,40.0,30.17,NNW,346,0.0,1.0,73,0.00,,,0.00,,2013-07-02 04:22:00,
2013-07-02 00:32:00,48.0,40.0,30.17,NNW,346,0.0,1.0,73,0.00,,,0.00,,2013-07-02 04:32:00,
2013-07-02 00:42:00,48.0,40.0,30.17,NNW,346,0.0,1.0,73,0.00,,,0.00,,2013-07-02 04:42:00,
2013-07-02 00:53:00,48.0,39.0,30.17,NNW,346,0.0,1.0,72,0.00,,,0.00,,2013-07-02 04:53:00,
2013-07-02 01:01:00,48.0,39.0,30.17,NNW,346,0.0,1.0,72,0.00,,,0.00,,2013-07-02 05:01:00,
2013-07-02 01:11:00,49.0,39.0,30.17,NNW,346,0.0,1.0,67,0.00,,,0.00,,2013-07-02 05:11:00,
2013-07-02 01:22:00,49.0,39.0,30.17,NNW,346,0.0,1.0,67,0.00,,,0.00,,2013-07-02 05:22:00,
2013-07-02 01:32:00,48.0,38.0,30.17,NNW,346,0.0,1.0,67,0.00,,,0.00,,2013-07-02 05:32:00,
2013-07-02 01:43:00,48.0,37.0,30.17,NNW,346,0.0,1.0,65,0.00,,,0.00,,2013-07-02 05:43:00,
2013-07-02 01:53:00,48.0,37.0,30.17,NNW,346,0.0,1.0,65,0.00,,,0.00,,2013-07-02 05:53:00,
2013-07-02 02:01:00,48.0,37.0,30.17,NNW,346,0.0,1.0,65,0.00,,,0.00,,2013-07-02 06:01:00,
2013-07-02 02:12:00,48.0,37.0,30.16,NNW,346,0.0,2.0,65,0.00,,,0.00,,2013-07-02 06:12:00,
2013-07-02 02:23:00,48.0,37.0,30.16,NNW,346,0.0,2.0,65,0.00,,,0.00,,2013-07-02 06:23:00,
2013-07-02 02:34:00,48.0,36.0,30.16,NNW,340,0.0,1.0,64,0.00,,,0.00,,2013-07-02 06:34:00,
2013-07-02 02:43:00,48.0,37.0,30.16,NNW,340,0.0,1.0,65,0.00,,,0.00,,2013-07-02 06:43:00,
2013-07-02 02:53:00,48.0,37.0,30.16,NNW,340,0.0,1.0,65,0.00,,,0.00,,2013-07-02 06:53:00,
2013-07-02 03:01:00,47.0,37.0,30.16,NNW,340,0.0,0.0,67,0.00,,,0.00,,2013-07-02 07:01:00,
2013-07-02 03:12:00,47.0,37.0,30.16,NNW,340,0.0,0.0,69,0.00,,,0.00,,2013-07-02 07:12:00,
2013-07-02 03:22:00,47.0,37.0,30.16,NNW,340,0.0,0.0,69,0.00,,,0.00,,2013-07-02 07:22:00,
2013-07-02 03:34:00,47.0,37.0,30.16,NNW,340,0.0,0.0,68,0.00,,,0.00,,2013-07-02 07:34:00,
2013-07-02 03:44:00,47.0,37.0,30.16,NNW,340,0.0,1.0,69,0.00,,,0.00,,2013-07-02 07:44:00,
2013-07-02 03:53:00,47.0,37.0,30.16,NNW,340,0.0,1.0,69,0.00,,,0.00,,2013-07-02 07:53:00,
2013-07-02 04:02:00,47.0,37.0,30.16,NNW,340,0.0,1.0,69,0.00,,,0.00,,2013-07-02 08:02:00,
2013-07-02 04:22:00,47.0,37.0,30.16,NNW,340,0.0,1.0,68,0.00,,,0.00,,2013-07-02 08:22:00,
2013-07-02 04:33:00,47.0,37.0,30.16,NNW,340,0.0,2.0,69,0.00,,,0.00,,2013-07-02 08:33:00,
2013-07-02 04:44:00,47.0,38.0,30.16,NNW,340,0.0,1.0,70,0.00,,,0.00,,2013-07-02 08:44:00,
2013-07-02 04:53:00,47.0,38.0,30.16,NNW,340,0.0,1.0,70,0.00,,,0.00,,2013-07-02 08:53:00,
2013-07-02 05:02:00,47.0,38.0,30.16,NNW,340,0.0,2.0,70,0.00,,,0.00,,2013-07-02 09:02:00,
2013-07-02 05:11:00,47.0,38.0,30.16,NNW,340,0.0,2.0,71,0.00,,,0.00,,2013-07-02 09:11:00,
2013-07-02 05:23:00,47.0,38.0,30.16,NNW,340,0.0,2.0,71,0.00,,,0.00,,2013-07-02 09:23:00,
2013-07-02 05:33:00,47.0,38.0,30.16,NNW,340,0.0,2.0,71,0.00,,,0.00,,2013-07-02 09:33:00,
2013-07-02 05:43:00,47.0,38.0,30.16,NNW,340,0.0,2.0,70,0.00,,,0.00,,2013-07-02 09:43:00,
2013-07-02 05:52:00,47.0,38.0,30.16,NNW,340,0.0,2.0,70,0.00,,,0.00,,2013-07-02 09:52:00,
2013-07-02 06:01:00,47.0,38.0,30.16,NNW,340,0.0,1.0,70,0.00,,,0.00,,2013-07-02 10:01:00,
2013-07-02 06:22:00,47.0,38.0,30.16,NNW,339,0.0,3.0,70,0.00,,,0.00,,2013-07-02 10:22:00,
2013-07-02 06:33:00,47.0,37.0,30.16,NNW,339,0.0,1.0,68,0.00,,,0.00,,2013-07-02 10:33:00,
2013-07-02 06:52:00,48.0,36.0,30.16,NNW,339,0.0,1.0,64,0.00,,,0.00,,2013-07-02 10:52:00,
2013-07-02 07:52:00,52.0,42.0,30.17,NNW,339,0.0,1.0,68,0.00,,,0.00,,2013-07-02 11:52:00,
2013-07-02 08:11:00,52.0,43.0,30.17,NNW,339,0.0,0.0,70,0.00,,,0.00,,2013-07-02 12:11:00,
2013-07-02 08:23:00,52.0,43.0,30.17,NNW,339,0.0,0.0,70,0.00,,,0.00,,2013-07-02 12:23:00,
2013-07-02 08:52:00,58.0,45.0,30.17,North,11,0.0,3.0,62,0.00,,,0.00,,2013-07-02 12:52:00,
2013-07-02 09:34:00,62.0,44.0,30.17,NNE,14,3.0,6.0,52,0.00,,,0.00,,2013-07-02 13:34:00,
2013-07-02 09:52:00,62.0,45.0,30.17,NE,34,1.0,5.0,54,0.00,,,0.00,,2013-07-02 13:52:00,
2013-07-02 10:02:00,62.0,46.0,30.17,NE,42,2.0,5.0,56,0.00,,,0.00,,2013-07-02 14:02:00,
2013-07-02 10:11:00,63.0,47.0,30.17,NE,43,3.0,5.0,56,0.00,,,0.00,,2013-07-02 14:11:00,
2013-07-02 10:22:00,63.0,47.0,30.17,NE,43,3.0,5.0,56,0.00,,,0.00,,2013-07-02 14:22:00,
2013-07-02 10:33:00,63.0,46.0,30.16,NE,42,1.0,5.0,54,0.00,,,0.00,,2013-07-02 14:33:00,
2013-07-02 10:43:00,62.0,47.0,30.16,NE,43,1.0,5.0,58,0.00,,,0.00,,2013-07-02 14:43:00,
2013-07-02 10:53:00,62.0,47.0,30.16,NE,43,1.0,5.0,58,0.00,,,0.00,,2013-07-02 14:53:00,
2013-07-02 11:02:00,63.0,48.0,30.16,NE,43,2.0,4.0,59,0.00,,,0.00,,2013-07-02 15:02:00,
2013-07-02 11:22:00,64.0,49.0,30.16,NE,44,1.0,5.0,59,0.00,,,0.00,,2013-07-02 15:22:00,
2013-07-02 11:33:00,64.0,47.0,30.16,NE,43,1.0,4.0,55,0.00,,,0.00,,2013-07-02 15:33:00,
2013-07-02 11:44:00,65.0,49.0,30.16,NE,40,1.0,5.0,56,0.00,,,0.00,,2013-07-02 15:44:00,
2013-07-02 11:53:00,65.0,49.0,30.16,NE,40,1.0,5.0,56,0.00,,,0.00,,2013-07-02 15:53:00,
2013-07-02 12:01:00,65.0,47.0,30.16,NE,44,3.0,6.0,53,0.00,,,0.00,,2013-07-02 16:01:00,
2013-07-02 12:12:00,65.0,48.0,30.15,NNE,21,3.0,6.0,54,0.00,,,0.00,,2013-07-02 16:12:00,
2013-07-02 12:22:00,65.0,48.0,30.15,NNE,21,3.0,6.0,54,0.00,,,0.00,,2013-07-02 16:22:00,
2013-07-02 12:33:00,64.0,50.0,30.15,NE,54,3.0,6.0,60,0.00,,,0.00,,2013-07-02 16:33:00,
2013-07-02 12:43:00,65.0,50.0,30.15,NE,55,3.0,6.0,58,0.00,,,0.00,,2013-07-02 16:43:00,
2013-07-02 12:52:00,65.0,50.0,30.15,NE,55,3.0,6.0,58,0.00,,,0.00,,2013-07-02 16:52:00,
2013-07-02 13:02:00,64.0,50.0,30.15,ENE,60,3.0,7.0,61,0.00,,,0.00,,2013-07-02 17:02:00,
2013-07-02 13:12:00,63.0,50.0,30.15,ENE,63,2.0,6.0,62,0.00,,,0.00,,2013-07-02 17:12:00,
2013-07-02 13:22:00,63.0,50.0,30.15,ENE,63,2.0,6.0,62,0.00,,,0.00,,2013-07-02 17:22:00,
2013-07-02 13:33:00,63.0,52.0,30.15,NE,42,3.0,7.0,68,0.00,,,0.00,,2013-07-02 17:33:00,
2013-07-02 13:43:00,63.0,52.0,30.15,NE,54,3.0,6.0,68,0.00,,,0.00,,2013-07-02 17:43:00,
2013-07-02 13:53:00,63.0,52.0,30.15,NE,54,3.0,6.0,68,0.00,,,0.00,,2013-07-02 17:53:00,
2013-07-02 14:02:00,64.0,50.0,30.15,NE,38,3.0,6.0,61,0.00,,,0.00,,2013-07-02 18:02:00,
2013-07-02 14:12:00,63.0,50.0,30.15,NNE,29,2.0,6.0,62,0.00,,,0.00,,2013-07-02 18:12:00,
2013-07-02 14:23:00,63.0,50.0,30.15,NNE,29,2.0,6.0,62,0.00,,,0.00,,2013-07-02 18:23:00,
2013-07-02 14:34:00,62.0,48.0,30.15,NE,44,2.0,7.0,61,0.00,,,0.00,,2013-07-02 18:34:00,
2013-07-02 14:43:00,62.0,48.0,30.14,ENE,59,3.0,8.0,60,0.00,,,0.00,,2013-07-02 18:43:00,
2013-07-02 14:53:00,62.0,48.0,30.14,ENE,59,3.0,8.0,60,0.00,,,0.00,,2013-07-02 18:53:00,
2013-07-02 15:01:00,62.0,46.0,30.14,NE,54,3.0,7.0,55,0.00,,,0.00,,2013-07-02 19:01:00,
2013-07-02 15:12:00,63.0,46.0,30.14,NE,49,2.0,6.0,53,0.00,,,0.00,,2013-07-02 19:12:00,
2013-07-02 15:22:00,63.0,46.0,30.14,NE,49,2.0,6.0,53,0.00,,,0.00,,2013-07-02 19:22:00,
2013-07-02 15:34:00,63.0,44.0,30.13,NE,40,2.0,5.0,49,0.00,,,0.00,,2013-07-02 19:34:00,
2013-07-02 15:43:00,63.0,42.0,30.13,North,9,4.0,7.0,47,0.00,,,0.00,,2013-07-02 19:43:00,
2013-07-02 15:53:00,63.0,42.0,30.13,North,9,4.0,7.0,47,0.00,,,0.00,,2013-07-02 19:53:00,
2013-07-02 16:02:00,63.0,42.0,30.12,NE,34,3.0,6.0,46,0.00,,,0.00,,2013-07-02 20:02:00,
2013-07-02 16:11:00,63.0,44.0,30.12,NE,42,3.0,5.0,49,0.00,,,0.00,,2013-07-02 20:11:00,
2013-07-02 16:22:00,63.0,44.0,30.12,NE,42,3.0,5.0,49,0.00,,,0.00,,2013-07-02 20:22:00,
2013-07-02 16:33:00,63.0,45.0,30.11,NE,46,2.0,4.0,51,0.00,,,0.00,,2013-07-02 20:33:00,
2013-07-02 16:43:00,63.0,44.0,30.11,NE,54,2.0,5.0,50,0.00,,,0.00,,2013-07-02 20:43:00,
2013-07-02 16:52:00,63.0,44.0,30.11,NE,54,2.0,5.0,50,0.00,,,0.00,,2013-07-02 20:52:00,
2013-07-02 17:02:00,62.0,42.0,30.11,NE,53,2.0,5.0,48,0.00,,,0.00,,2013-07-02 21:02:00,
2013-07-02 17:11:00,62.0,43.0,30.11,NE,50,3.0,5.0,50,0.00,,,0.00,,2013-07-02 21:11:00,
2013-07-02 17:22:00,62.0,43.0,30.11,NE,50,3.0,5.0,50,0.00,,,0.00,,2013-07-02 21:22:00,
2013-07-02 17:33:00,63.0,45.0,30.10,NE,53,3.0,6.0,51,0.00,,,0.00,,2013-07-02 21:33:00,
2013-07-02 17:44:00,63.0,43.0,30.10,NE,34,3.0,6.0,48,0.00,,,0.00,,2013-07-02 21:44:00,
2013-07-02 17:52:00,63.0,43.0,30.10,NE,34,3.0,6.0,48,0.00,,,0.00,,2013-07-02 21:52:00,
2013-07-02 18:01:00,64.0,44.0,30.10,NE,46,3.0,6.0,49,0.00,,,0.00,,2013-07-02 22:01:00,
2013-07-02 18:11:00,64.0,44.0,30.09,NE,45,2.0,5.0,49,0.00,,,0.00,,2013-07-02 22:11:00,
2013-07-02 18:22:00,64.0,44.0,30.09,NE,45,2.0,5.0,49,0.00,,,0.00,,2013-07-02 22:22:00,
2013-07-02 18:34:00,64.0,45.0,30.09,NNE,16,2.0,5.0,50,0.00,,,0.00,,2013-07-02 22:34:00,
2013-07-02 18:43:00,64.0,47.0,30.09,NE,36,1.0,4.0,53,0.00,,,0.00,,2013-07-02 22:43:00,
2013-07-02 18:53:00,64.0,47.0,30.09,NE,36,1.0,4.0,53,0.00,,,0.00,,2013-07-02 22:53:00,
2013-07-02 19:01:00,65.0,46.0,30.09,NE,38,2.0,4.0,51,0.00,,,0.00,,2013-07-02 23:01:00,
2013-07-02 19:11:00,65.0,46.0,30.09,NE,40,1.0,4.0,51,0.00,,,0.00,,2013-07-02 23:11:00,
2013-07-02 19:22:00,65.0,46.0,30.09,NE,40,1.0,4.0,51,0.00,,,0.00,,2013-07-02 23:22:00,
2013-07-02 19:33:00,65.0,48.0,30.08,NE,40,1.0,4.0,55,0.00,,,0.00,,2013-07-02 23:33:00,
2013-07-02 19:44:00,65.0,48.0,30.08,NE,40,1.0,3.0,55,0.00,,,0.00,,2013-07-02 23:44:00,
2013-07-02 19:52:00,65.0,48.0,30.08,NE,40,1.0,3.0,55,0.00,,,0.00,,2013-07-02 23:52:00,
2013-07-02 20:01:00,64.0,47.0,30.08,NE,40,1.0,3.0,54,0.00,,,0.00,,2013-07-03 00:01:00,
2013-07-02 20:11:00,64.0,46.0,30.08,NE,40,0.0,3.0,52,0.00,,,0.00,,2013-07-03 00:11:00,
2013-07-02 20:22:00,64.0,46.0,30.08,NE,40,0.0,3.0,52,0.00,,,0.00,,2013-07-03 00:22:00,
2013-07-02 20:33:00,64.0,45.0,30.07,NE,40,0.0,2.0,51,0.00,,,0.00,,2013-07-03 00:33:00,
2013-07-02 20:44:00,64.0,45.0,30.07,NE,40,0.0,2.0,51,0.00,,,0.00,,2013-07-03 00:44:00,
2013-07-02 20:52:00,63.0,44.0,30.08,NE,40,0.0,1.0,50,0.00,,,0.00,,2013-07-03 00:52:00,
2013-07-02 21:01:00,63.0,44.0,30.08,NE,40,0.0,1.0,50,0.00,,,0.00,,2013-07-03 01:01:00,
2013-07-02 21:11:00,61.0,46.0,30.07,NE,40,0.0,1.0,57,0.00,,,0.00,,2013-07-03 01:11:00,
2013-07-02 21:22:00,59.0,47.0,30.08,NE,40,0.0,0.0,64,0.00,,,0.00,,2013-07-03 01:22:00,
2013-07-02 21:33:00,59.0,47.0,30.08,NE,40,0.0,0.0,64,0.00,,,0.00,,2013-07-03 01:33:00,
2013-07-02 21:42:00,58.0,47.0,30.07,NE,40,0.0,1.0,68,0.00,,,0.00,,2013-07-03 01:42:00,
2013-07-02 21:56:00,58.0,47.0,30.07,NE,40,0.0,1.0,68,0.00,,,0.00,,2013-07-03 01:56:00,
2013-07-02 22:04:00,58.0,48.0,30.07,NE,40,0.0,0.0,69,0.00,,,0.00,,2013-07-03 02:04:00,
2013-07-02 22:14:00,58.0,48.0,30.07,NE,40,0.0,0.0,69,0.00,,,0.00,,2013-07-03 02:14:00,
2013-07-02 22:27:00,58.0,48.0,30.07,NE,40,0.0,0.0,69,0.00,,,0.00,,2013-07-03 02:27:00,
2013-07-02 22:39:00,56.0,49.0,30.08,NE,40,0.0,0.0,77,0.00,,,0.00,,2013-07-03 02:39:00,
2013-07-02 22:44:00,56.0,49.0,30.08,NE,40,0.0,0.0,77,0.00,,,0.00,,2013-07-03 02:44:00,
2013-07-02 22:59:00,55.0,48.0,30.08,NE,40,0.0,0.0,77,0.00,,,0.00,,2013-07-03 02:59:00,
2013-07-02 23:04:00,55.0,47.0,30.08,NE,40,0.0,0.0,74,0.00,,,0.00,,2013-07-03 03:04:00,
2013-07-02 23:13:00,55.0,47.0,30.08,NE,40,0.0,0.0,74,0.00,,,0.00,,2013-07-03 03:13:00,
2013-07-02 23:25:00,55.0,45.0,30.08,NE,40,0.0,0.0,68,0.00,,,0.00,,2013-07-03 03:25:00,
2013-07-02 23:35:00,55.0,44.0,30.07,NE,40,0.0,0.0,67,0.00,,,0.00,,2013-07-03 03:35:00,
2013-07-02 23:47:00,55.0,44.0,30.07,NE,40,0.0,0.0,67,0.00,,,0.00,,2013-07-03 03:47:00,
2013-07-02 23:58:00,55.0,43.0,30.08,NE,40,0.0,0.0,64,0.00,,,0.00,,2013-07-03 03:58:00,